createdAt,value
2023-04-10T00:00:10.760Z,153.94
2023-04-10T00:01:05.741Z,154.09
2023-04-10T00:02:01.115Z,154.80
2023-04-10T00:02:56.136Z,155.09
2023-04-10T00:03:51.214Z,157.13
2023-04-10T00:04:46.283Z,157.73
2023-04-10T00:05:41.350Z,155.96
2023-04-10T00:06:36.700Z,155.81
2023-04-10T00:07:31.739Z,159.23
2023-04-10T00:08:26.912Z,157.13
2023-04-10T00:09:22.097Z,158.32
2023-04-10T00:10:17.016Z,157.73
2023-04-10T00:11:12.096Z,158.18
2023-04-10T00:12:07.338Z,162.01
2023-04-10T00:13:02.328Z,162.96
2023-04-10T00:13:57.431Z,162.80
2023-04-10T00:14:52.494Z,160.15
2023-04-10T00:15:47.573Z,157.58
2023-04-10T00:16:42.760Z,157.73
2023-04-10T00:17:37.730Z,158.32
2023-04-10T00:18:32.824Z,158.03
2023-04-10T00:19:27.866Z,156.99
2023-04-10T00:20:22.997Z,156.54
2023-04-10T00:21:18.233Z,156.99
2023-04-10T00:22:13.110Z,157.43
2023-04-10T00:23:08.160Z,158.32
2023-04-10T00:24:03.245Z,161.86
2023-04-10T00:24:58.332Z,162.80
2023-04-10T00:25:53.626Z,163.12
2023-04-10T00:26:48.492Z,163.44
2023-04-10T00:27:43.591Z,163.12
2023-04-10T00:28:38.700Z,162.01
2023-04-10T00:29:33.827Z,161.08
2023-04-10T00:30:28.914Z,161.08
2023-04-10T00:31:24.247Z,159.99
2023-04-10T00:32:19.090Z,158.03
2023-04-10T00:33:14.084Z,156.54
2023-04-10T00:34:09.061Z,155.23
2023-04-10T00:35:04.204Z,152.96
2023-04-10T00:35:59.350Z,150.88
2023-04-10T00:36:54.191Z,148.86
2023-04-10T00:37:49.249Z,148.33
2023-04-10T00:38:44.395Z,146.64
2023-04-10T00:39:39.462Z,145.36
2023-04-10T00:40:34.763Z,142.63
2023-04-10T00:41:33.727Z,140.47
2023-04-10T00:42:28.814Z,139.41
2023-04-10T00:43:23.854Z,138.49
2023-04-10T00:44:18.986Z,136.34
2023-04-10T00:45:14.259Z,136.45
2023-04-10T00:46:09.398Z,134.47
2023-04-10T00:47:04.402Z,136.22
2023-04-10T00:47:59.678Z,140.11
2023-04-10T00:48:54.762Z,141.90
2023-04-10T00:49:50.008Z,143.98
2023-04-10T00:50:45.357Z,144.23
2023-04-10T00:51:40.124Z,144.11
2023-04-10T00:52:35.167Z,143.86
2023-04-10T00:53:30.292Z,145.49
2023-04-10T00:54:25.254Z,145.62
2023-04-10T00:55:20.491Z,146.51
2023-04-10T00:56:16.795Z,148.20
2023-04-10T00:57:11.865Z,152.96
2023-04-10T00:58:06.874Z,153.80
2023-04-10T00:59:02.481Z,158.63
2023-04-10T00:59:57.176Z,158.32
2023-04-10T01:00:52.220Z,157.73
2023-04-10T01:01:47.276Z,157.88
2023-04-10T01:02:42.359Z,157.88
2023-04-10T01:03:37.490Z,155.67
2023-04-10T01:04:32.670Z,154.80
2023-04-10T01:05:27.469Z,153.10
2023-04-10T01:06:22.461Z,152.26
2023-04-10T01:07:17.816Z,154.66
2023-04-10T01:08:13.020Z,153.66
2023-04-10T01:09:08.252Z,153.52
2023-04-10T01:10:04.234Z,154.37
2023-04-10T01:10:59.223Z,154.94
2023-04-10T01:11:55.051Z,156.40
2023-04-10T01:12:50.248Z,157.28
2023-04-10T01:13:45.614Z,158.18
2023-04-10T01:14:41.225Z,160.77
2023-04-10T01:15:36.701Z,159.23
2023-04-10T01:16:31.668Z,159.69
2023-04-10T01:17:28.228Z,162.96
2023-04-10T01:18:23.319Z,164.09
2023-04-10T01:19:19.137Z,165.55
2023-04-10T01:20:14.286Z,162.96
2023-04-10T01:21:09.441Z,162.49
2023-04-10T01:22:05.230Z,160.46
2023-04-10T01:23:00.477Z,159.38
2023-04-10T01:23:56.683Z,159.08
2023-04-10T01:24:51.504Z,156.84
2023-04-10T01:25:46.915Z,156.10
2023-04-10T01:26:42.746Z,158.63
2023-04-10T01:27:37.970Z,157.88
2023-04-10T01:28:33.374Z,157.73
2023-04-10T01:29:29.487Z,154.80
2023-04-10T01:30:24.745Z,154.80
2023-04-10T01:31:20.558Z,154.37
2023-04-10T01:32:15.765Z,155.38
2023-04-10T01:33:11.132Z,151.43
2023-04-10T01:34:06.868Z,152.54
2023-04-10T01:35:02.060Z,153.38
2023-04-10T01:35:58.166Z,150.20
2023-04-10T01:36:52.971Z,151.02
2023-04-10T01:37:48.369Z,150.34
2023-04-10T01:38:44.026Z,152.68
2023-04-10T01:39:39.295Z,153.24
2023-04-10T01:40:34.373Z,153.38
2023-04-10T01:41:31.020Z,153.24
2023-04-10T01:42:26.125Z,155.96
2023-04-10T01:43:21.949Z,155.67
2023-04-10T01:44:17.158Z,157.88
2023-04-10T01:45:12.306Z,157.88
2023-04-10T01:46:08.291Z,160.46
2023-04-10T01:47:03.301Z,159.69
2023-04-10T01:47:59.162Z,160.15
2023-04-10T01:48:54.231Z,160.77
2023-04-10T01:49:49.618Z,161.39
2023-04-10T01:50:45.447Z,161.54
2023-04-10T01:51:40.592Z,162.49
2023-04-10T01:52:35.815Z,164.57
2023-04-10T01:53:31.033Z,167.04
2023-04-10T01:54:26.865Z,168.56
2023-04-10T01:55:22.078Z,170.11
2023-04-10T01:56:17.664Z,171.51
2023-04-10T01:57:13.055Z,174.19
2023-04-10T01:58:08.317Z,175.10
2023-04-10T01:59:04.120Z,178.67
2023-04-10T01:59:59.370Z,179.43
2023-04-10T02:00:54.632Z,183.18
2023-04-10T02:01:50.450Z,183.38
2023-04-10T02:02:45.740Z,185.62
2023-04-10T02:03:41.015Z,185.73
2023-04-10T02:04:37.410Z,187.00
2023-04-10T02:05:32.513Z,188.07
2023-04-10T02:06:28.338Z,191.47
2023-04-10T02:07:23.553Z,193.96
2023-04-10T02:08:18.710Z,194.65
2023-04-10T02:09:14.479Z,195.81
2023-04-10T02:10:09.727Z,198.18
2023-04-10T02:11:05.091Z,198.42
2023-04-10T02:12:00.210Z,197.23
2023-04-10T02:12:55.427Z,197.23
2023-04-10T02:13:50.681Z,198.54
2023-04-10T02:14:46.016Z,197.11
2023-04-10T02:15:42.154Z,195.81
2023-04-10T02:16:37.234Z,195.12
2023-04-10T02:17:32.585Z,193.62
2023-04-10T02:18:28.390Z,192.37
2023-04-10T02:19:23.664Z,189.59
2023-04-10T02:20:18.789Z,187.53
2023-04-10T02:21:14.180Z,185.83
2023-04-10T02:22:09.130Z,185.42
2023-04-10T02:23:04.386Z,183.18
2023-04-10T02:24:00.616Z,181.98
2023-04-10T02:24:55.996Z,181.78
2023-04-10T02:25:51.001Z,180.99
2023-04-10T02:26:50.450Z,179.82
2023-04-10T02:27:45.623Z,180.80
2023-04-10T02:28:40.885Z,181.78
2023-04-10T02:29:36.091Z,182.58
2023-04-10T02:30:31.203Z,183.99
2023-04-10T02:31:26.193Z,185.83
2023-04-10T02:32:21.322Z,185.10
2023-04-10T02:33:16.395Z,186.04
2023-04-10T02:34:11.524Z,188.18
2023-04-10T02:35:06.713Z,187.85
2023-04-10T02:36:02.004Z,190.69
2023-04-10T02:36:56.786Z,192.82
2023-04-10T02:37:52.038Z,193.96
2023-04-10T02:38:46.932Z,191.70
2023-04-10T02:39:42.028Z,194.88
2023-04-10T02:40:37.108Z,197.35
2023-04-10T02:41:32.238Z,199.38
2023-04-10T02:42:27.291Z,200.48
2023-04-10T02:43:22.409Z,200.97
2023-04-10T02:44:17.510Z,202.33
2023-04-10T02:45:12.626Z,202.84
2023-04-10T02:46:08.036Z,202.46
2023-04-10T02:47:03.194Z,201.96
2023-04-10T02:47:59.081Z,200.97
2023-04-10T02:48:54.188Z,199.38
2023-04-10T02:49:50.088Z,198.30
2023-04-10T02:50:45.437Z,199.51
2023-04-10T02:51:40.697Z,198.18
2023-04-10T02:52:36.398Z,197.58
2023-04-10T02:53:31.603Z,198.54
2023-04-10T02:54:26.976Z,199.14
2023-04-10T02:55:23.053Z,199.63
2023-04-10T02:56:18.478Z,200.73
2023-04-10T02:57:14.139Z,202.46
2023-04-10T02:58:09.384Z,204.10
2023-04-10T02:59:04.721Z,207.71
2023-04-10T03:00:00.411Z,209.97
2023-04-10T03:00:55.666Z,210.51
2023-04-10T03:01:51.705Z,210.24
2023-04-10T03:02:46.855Z,211.46
2023-04-10T03:03:42.230Z,210.51
2023-04-10T03:04:37.847Z,209.71
2023-04-10T03:05:32.974Z,209.97
2023-04-10T03:06:28.484Z,210.65
2023-04-10T03:07:24.435Z,211.46
2023-04-10T03:08:19.701Z,209.44
2023-04-10T03:09:15.529Z,205.24
2023-04-10T03:10:10.586Z,203.84
2023-04-10T03:11:05.851Z,204.86
2023-04-10T03:12:01.812Z,206.67
2023-04-10T03:12:56.960Z,207.45
2023-04-10T03:13:52.876Z,207.32
2023-04-10T03:14:47.913Z,206.02
2023-04-10T03:15:43.327Z,204.99
2023-04-10T03:16:39.283Z,200.85
2023-04-10T03:17:34.307Z,199.26
2023-04-10T03:18:29.534Z,199.87
2023-04-10T03:19:25.865Z,199.26
2023-04-10T03:20:21.115Z,200.11
2023-04-10T03:21:17.076Z,200.48
2023-04-10T03:22:12.098Z,201.09
2023-04-10T03:23:07.166Z,199.99
2023-04-10T03:24:03.065Z,198.30
2023-04-10T03:24:58.133Z,195.58
2023-04-10T03:25:54.117Z,194.65
2023-04-10T03:26:49.091Z,193.85
2023-04-10T03:27:44.361Z,192.37
2023-04-10T03:28:40.149Z,193.16
2023-04-10T03:29:35.457Z,193.16
2023-04-10T03:30:30.644Z,192.48
2023-04-10T03:31:27.056Z,192.26
2023-04-10T03:32:22.267Z,190.91
2023-04-10T03:33:18.163Z,188.94
2023-04-10T03:34:13.167Z,188.39
2023-04-10T03:35:08.562Z,186.89
2023-04-10T03:36:04.425Z,185.62
2023-04-10T03:36:59.517Z,185.62
2023-04-10T03:37:55.333Z,185.83
2023-04-10T03:38:50.597Z,184.60
2023-04-10T03:39:46.000Z,182.98
2023-04-10T03:40:41.918Z,181.98
2023-04-10T03:41:36.861Z,180.40
2023-04-10T03:42:32.103Z,179.63
2023-04-10T03:43:28.298Z,179.43
2023-04-10T03:44:23.584Z,180.21
2023-04-10T03:45:18.796Z,180.21
2023-04-10T03:46:14.216Z,179.43
2023-04-10T03:47:10.582Z,172.75
2023-04-10T03:48:05.829Z,172.57
2023-04-10T03:49:01.216Z,174.01
2023-04-10T03:49:57.303Z,176.03
2023-04-10T03:50:52.573Z,178.10
2023-04-10T03:51:48.570Z,182.38
2023-04-10T03:52:43.487Z,185.42
2023-04-10T03:53:38.889Z,187.32
2023-04-10T03:54:34.620Z,190.25
2023-04-10T03:55:29.865Z,192.37
2023-04-10T03:56:25.828Z,195.00
2023-04-10T03:57:20.928Z,198.90
2023-04-10T03:58:16.285Z,200.73
2023-04-10T03:59:12.059Z,201.22
2023-04-10T04:00:07.106Z,202.21
2023-04-10T04:01:02.559Z,203.46
2023-04-10T04:01:58.566Z,203.46
2023-04-10T04:02:54.006Z,206.41
2023-04-10T04:03:49.017Z,208.24
2023-04-10T04:04:44.558Z,208.77
2023-04-10T04:05:39.349Z,208.64
2023-04-10T04:06:35.587Z,208.77
2023-04-10T04:07:30.696Z,208.37
2023-04-10T04:08:25.944Z,207.45
2023-04-10T04:09:21.695Z,207.06
2023-04-10T04:10:16.949Z,205.76
2023-04-10T04:11:12.346Z,205.76
2023-04-10T04:12:07.569Z,204.22
2023-04-10T04:13:02.546Z,203.09
2023-04-10T04:13:57.651Z,203.46
2023-04-10T04:14:52.631Z,203.34
2023-04-10T04:15:47.887Z,205.24
2023-04-10T04:16:42.871Z,206.54
2023-04-10T04:17:43.755Z,210.11
2023-04-10T04:18:38.837Z,210.78
2023-04-10T04:19:34.086Z,215.07
2023-04-10T04:20:29.481Z,218.79
2023-04-10T04:21:24.444Z,217.78
2023-04-10T04:22:19.618Z,218.65
2023-04-10T04:24:43.145Z,201.59
2023-04-10T04:25:38.288Z,209.71
2023-04-10T04:26:35.389Z,214.93
2023-04-10T04:27:28.774Z,215.63
2023-04-10T04:28:24.068Z,216.91
2023-04-10T04:29:19.308Z,218.36
2023-04-10T04:30:14.791Z,218.36
2023-04-10T04:31:09.906Z,217.92
2023-04-10T04:32:05.224Z,218.21
2023-04-10T04:33:00.370Z,217.20
2023-04-10T04:33:55.800Z,217.49
2023-04-10T04:34:51.018Z,216.91
2023-04-10T04:35:46.243Z,215.77
2023-04-10T04:36:41.509Z,215.63
2023-04-10T04:37:36.898Z,216.49
2023-04-10T04:38:32.194Z,214.64
2023-04-10T04:39:27.593Z,215.63
2023-04-10T04:40:22.833Z,213.39
2023-04-10T04:41:20.499Z,213.67
2023-04-10T04:42:13.712Z,209.71
2023-04-10T04:43:09.125Z,207.58
2023-04-10T04:44:04.474Z,209.17
2023-04-10T04:45:00.117Z,210.51
2023-04-10T04:45:55.452Z,210.51
2023-04-10T04:46:50.589Z,212.42
2023-04-10T04:47:45.868Z,215.07
2023-04-10T04:48:41.244Z,216.91
2023-04-10T04:49:36.596Z,216.63
2023-04-10T04:50:32.172Z,216.77
2023-04-10T04:51:27.263Z,215.77
2023-04-10T04:52:22.656Z,215.91
2023-04-10T04:53:17.934Z,214.22
2023-04-10T04:54:13.337Z,212.97
2023-04-10T04:55:08.860Z,214.64
2023-04-10T04:56:04.077Z,213.11
2023-04-10T04:56:59.284Z,212.70
2023-04-10T04:57:54.579Z,212.01
2023-04-10T04:58:49.917Z,211.87
2023-04-10T04:59:45.497Z,212.15
2023-04-10T05:00:40.624Z,211.60
2023-04-10T05:01:36.184Z,211.46
2023-04-10T05:02:31.426Z,208.77
2023-04-10T05:03:26.804Z,207.98
2023-04-10T05:04:22.240Z,207.45
2023-04-10T05:05:17.901Z,208.64
2023-04-10T05:06:12.941Z,208.11
2023-04-10T05:07:08.421Z,205.76
2023-04-10T05:08:03.728Z,207.06
2023-04-10T05:08:59.222Z,207.71
2023-04-10T05:09:54.684Z,207.85
2023-04-10T05:10:49.917Z,206.93
2023-04-10T05:11:45.184Z,207.06
2023-04-10T05:12:40.644Z,204.48
2023-04-10T05:13:35.952Z,205.37
2023-04-10T05:14:31.566Z,206.28
2023-04-10T05:15:26.860Z,209.57
2023-04-10T05:16:22.279Z,210.38
2023-04-10T05:17:17.553Z,211.33
2023-04-10T05:18:12.951Z,211.60
2023-04-10T05:19:08.224Z,211.19
2023-04-10T05:20:03.713Z,209.17
2023-04-10T05:20:58.988Z,209.97
2023-04-10T05:21:54.457Z,210.65
2023-04-10T05:22:49.785Z,210.78
2023-04-10T05:23:45.188Z,209.71
2023-04-10T05:24:40.547Z,208.24
2023-04-10T05:25:36.159Z,207.32
2023-04-10T05:26:31.533Z,205.12
2023-04-10T05:27:27.045Z,203.97
2023-04-10T05:28:22.516Z,202.21
2023-04-10T05:29:18.048Z,200.85
2023-04-10T05:30:13.553Z,200.24
2023-04-10T05:31:08.954Z,199.87
2023-04-10T05:32:04.203Z,199.75
2023-04-10T05:32:59.726Z,199.99
2023-04-10T05:33:55.054Z,201.09
2023-04-10T05:34:50.735Z,201.46
2023-04-10T05:35:46.127Z,202.09
2023-04-10T05:36:41.522Z,203.21
2023-04-10T05:37:36.833Z,203.59
2023-04-10T05:38:32.464Z,204.35
2023-04-10T05:39:27.850Z,205.89
2023-04-10T05:40:23.518Z,205.76
2023-04-10T05:41:18.838Z,205.24
2023-04-10T05:42:14.397Z,205.76
2023-04-10T05:43:09.750Z,205.24
2023-04-10T05:44:05.371Z,205.63
2023-04-10T05:45:00.907Z,207.32
2023-04-10T05:45:56.172Z,208.37
2023-04-10T05:46:51.608Z,207.85
2023-04-10T05:47:46.958Z,206.15
2023-04-10T05:48:42.436Z,209.84
2023-04-10T05:49:38.146Z,209.04
2023-04-10T05:50:33.419Z,209.57
2023-04-10T05:51:28.900Z,212.28
2023-04-10T05:52:24.239Z,211.74
2023-04-10T05:53:19.626Z,210.92
2023-04-10T05:54:15.138Z,211.60
2023-04-10T05:55:10.458Z,214.79
2023-04-10T05:56:05.965Z,217.92
2023-04-10T05:57:01.468Z,218.94
2023-04-10T05:57:56.806Z,217.06
2023-04-10T05:58:52.538Z,218.07
2023-04-10T05:59:47.594Z,218.94
2023-04-10T06:00:43.243Z,216.91
2023-04-10T06:01:38.689Z,214.08
2023-04-10T06:02:34.245Z,214.08
2023-04-10T06:03:29.807Z,210.65
2023-04-10T06:04:24.920Z,206.93
2023-04-10T06:05:20.301Z,206.15
2023-04-10T06:06:15.592Z,205.50
2023-04-10T06:07:11.117Z,198.18
2023-04-10T06:08:06.552Z,199.26
2023-04-10T06:09:02.184Z,196.40
2023-04-10T06:09:57.372Z,193.39
2023-04-10T06:10:52.932Z,190.14
2023-04-10T06:11:48.262Z,185.31
2023-04-10T06:12:43.927Z,185.01
2023-04-10T06:13:39.423Z,188.61
2023-04-10T06:14:34.674Z,191.25
2023-04-10T06:15:30.024Z,194.77
2023-04-10T06:16:25.548Z,193.39
2023-04-10T06:17:21.112Z,194.77
2023-04-10T06:18:16.663Z,195.00
2023-04-10T06:19:12.288Z,186.57
2023-04-10T06:20:07.689Z,188.94
2023-04-10T06:21:03.046Z,189.59
2023-04-10T06:21:58.552Z,192.60
2023-04-10T06:22:54.056Z,194.31
2023-04-10T06:23:49.358Z,195.93
2023-04-10T06:24:44.125Z,203.21
2023-04-10T06:25:39.269Z,209.84
2023-04-10T06:26:34.335Z,220.56
2023-04-10T06:27:34.052Z,228.39
2023-04-10T06:28:29.705Z,233.59
2023-04-10T06:29:24.838Z,236.28
2023-04-10T06:30:20.623Z,241.50
2023-04-10T06:31:16.040Z,252.08
2023-04-10T06:32:11.404Z,257.21
2023-04-10T06:33:08.121Z,258.23
2023-04-10T06:34:03.363Z,259.25
2023-04-10T06:34:59.159Z,255.41
2023-04-10T06:35:54.584Z,263.62
2023-04-10T06:36:49.968Z,261.31
2023-04-10T06:37:46.055Z,253.05
2023-04-10T06:38:41.297Z,237.31
2023-04-10T06:39:37.071Z,244.38
2023-04-10T06:40:32.602Z,250.54
2023-04-10T06:41:27.941Z,278.62
2023-04-10T06:42:23.901Z,299.20
2023-04-10T06:43:19.422Z,294.37
2023-04-10T06:44:14.653Z,285.16
2023-04-10T06:45:11.292Z,285.40
2023-04-10T06:46:06.768Z,311.70
2023-04-10T06:47:02.784Z,349.56
2023-04-10T06:47:58.162Z,390.19
2023-04-10T06:48:53.658Z,422.58
2023-04-10T06:49:49.262Z,443.08
2023-04-10T06:50:44.589Z,453.01
2023-04-10T06:51:40.515Z,456.11
2023-04-10T06:52:35.712Z,460.84
2023-04-10T06:53:31.217Z,459.57
2023-04-10T06:54:27.004Z,468.94
2023-04-10T06:55:22.532Z,477.33
2023-04-10T06:56:17.878Z,481.12
2023-04-10T06:57:14.218Z,484.27
2023-04-10T06:58:09.836Z,493.95
2023-04-10T06:59:05.616Z,508.26
2023-04-10T07:00:00.904Z,506.71
2023-04-10T07:00:56.434Z,509.81
2023-04-10T07:01:52.234Z,512.55
2023-04-10T07:02:47.918Z,528.39
2023-04-10T07:03:43.562Z,566.07
2023-04-10T07:04:38.919Z,583.41
2023-04-10T07:05:34.260Z,571.90
2023-04-10T07:06:30.055Z,571.90
2023-04-10T07:07:25.432Z,577.34
2023-04-10T07:08:21.133Z,590.12
2023-04-10T07:09:17.184Z,592.74
2023-04-10T07:10:12.513Z,580.86
2023-04-10T07:11:08.340Z,570.92
2023-04-10T07:12:03.789Z,560.36
2023-04-10T07:12:59.429Z,543.91
2023-04-10T07:13:54.959Z,537.77
2023-04-10T07:14:50.354Z,531.34
2023-04-10T07:15:46.201Z,536.90
2023-04-10T07:16:41.449Z,551.56
2023-04-10T07:17:37.147Z,564.16
2023-04-10T07:18:32.807Z,541.70
2023-04-10T07:19:28.269Z,544.80
2023-04-10T07:20:23.669Z,536.04
2023-04-10T07:21:19.953Z,516.92
2023-04-10T07:22:15.486Z,524.24
2023-04-10T07:23:11.314Z,551.10
2023-04-10T07:24:06.748Z,555.69
2023-04-10T07:25:02.308Z,573.37
2023-04-10T07:25:58.059Z,596.99
2023-04-10T07:26:53.467Z,605.11
2023-04-10T07:27:48.828Z,608.42
2023-04-10T07:28:44.233Z,617.44
2023-04-10T07:29:40.069Z,610.09
2023-04-10T07:30:35.484Z,591.16
2023-04-10T07:31:30.936Z,577.84
2023-04-10T07:32:26.993Z,579.35
2023-04-10T07:33:22.169Z,586.48
2023-04-10T07:34:17.867Z,604.56
2023-04-10T07:35:13.325Z,610.65
2023-04-10T07:36:08.832Z,621.47
2023-04-10T07:37:04.671Z,635.68
2023-04-10T07:38:00.035Z,643.04
2023-04-10T07:38:55.667Z,658.28
2023-04-10T07:39:52.188Z,696.79
2023-04-10T07:40:47.485Z,715.49
2023-04-10T07:41:43.199Z,714.72
2023-04-10T07:42:38.604Z,724.03
2023-04-10T07:43:34.069Z,735.21
2023-04-10T07:44:30.016Z,735.21
2023-04-10T07:45:25.578Z,739.28
2023-04-10T07:46:21.055Z,747.57
2023-04-10T07:47:16.689Z,750.00
2023-04-10T07:48:12.023Z,744.23
2023-04-10T07:49:08.920Z,724.03
2023-04-10T07:50:04.284Z,701.93
2023-04-10T07:50:59.749Z,643.04
2023-04-10T07:51:55.146Z,662.20
2023-04-10T07:52:50.742Z,662.86
2023-04-10T07:53:45.738Z,696.07
2023-04-10T07:54:40.772Z,721.68
2023-04-10T07:55:35.761Z,740.93
2023-04-10T07:56:30.816Z,746.73
2023-04-10T07:57:25.824Z,742.58
2023-04-10T07:58:21.013Z,734.40
2023-04-10T07:59:15.854Z,747.06
2023-04-10T08:00:10.927Z,787.61
2023-04-10T08:01:05.959Z,817.51
2023-04-10T08:02:01.148Z,835.42
2023-04-10T08:02:56.486Z,843.34
2023-04-10T08:03:51.446Z,839.62
2023-04-10T08:04:46.510Z,839.09
2023-04-10T08:05:41.565Z,798.45
2023-04-10T08:06:36.581Z,800.36
2023-04-10T08:07:31.640Z,804.70
2023-04-10T08:08:27.262Z,809.09
2023-04-10T08:09:22.594Z,849.24
2023-04-10T08:10:18.081Z,905.70
2023-04-10T08:11:14.099Z,944.13
2023-04-10T08:12:09.479Z,935.53
2023-04-10T08:13:05.365Z,902.64
2023-04-10T08:14:00.589Z,898.39
2023-04-10T08:14:56.157Z,860.18
2023-04-10T08:15:52.146Z,862.96
2023-04-10T08:16:47.676Z,911.89
2023-04-10T08:17:43.113Z,953.57
2023-04-10T08:18:39.540Z,933.57
2023-04-10T08:19:36.254Z,910.64
2023-04-10T08:20:30.804Z,897.78
2023-04-10T08:21:26.268Z,906.31
2023-04-10T08:22:21.879Z,920.05
2023-04-10T08:23:20.846Z,923.88
2023-04-10T08:24:13.280Z,925.80
2023-04-10T08:25:08.900Z,934.22
2023-04-10T08:26:04.402Z,947.48
2023-04-10T08:26:59.850Z,957.68
2023-04-10T08:27:56.098Z,953.57
2023-04-10T08:28:51.431Z,927.08
2023-04-10T08:29:46.921Z,885.28
2023-04-10T08:30:43.281Z,875.41
2023-04-10T08:31:38.725Z,896.58
2023-04-10T08:32:34.766Z,915.64
2023-04-10T08:33:30.124Z,932.91
2023-04-10T08:34:25.576Z,1000.75
2023-04-10T08:35:21.293Z,1052.01
2023-04-10T08:36:19.636Z,1086.25
2023-04-10T08:37:12.629Z,992.57
2023-04-10T08:38:14.056Z,847.08
2023-04-10T08:39:04.507Z,895.97
2023-04-10T08:39:59.311Z,992.57
2023-04-10T08:40:54.679Z,1000.00
2023-04-10T08:41:50.055Z,987.43
2023-04-10T08:42:46.485Z,1018.31
2023-04-10T08:43:41.969Z,993.30
2023-04-10T08:44:37.864Z,983.79
2023-04-10T08:45:33.263Z,1029.30
2023-04-10T08:46:28.803Z,1072.29
2023-04-10T08:47:24.662Z,1062.90
2023-04-10T08:48:20.072Z,1050.35
2023-04-10T08:49:15.852Z,1030.09
2023-04-10T08:50:11.175Z,1031.69
2023-04-10T08:51:08.790Z,1041.34
2023-04-10T08:52:02.299Z,1109.73
2023-04-10T08:52:57.877Z,1143.96
2023-04-10T08:53:53.277Z,1177.25
2023-04-10T08:54:49.535Z,1197.31
2023-04-10T08:55:45.050Z,1185.61
2023-04-10T08:56:40.436Z,1214.74
2023-04-10T08:57:36.271Z,1286.13
2023-04-10T08:58:31.512Z,1339.02
2023-04-10T08:59:26.949Z,1381.99
2023-04-10T09:00:23.554Z,1489.95
2023-04-10T09:01:18.176Z,1544.24
2023-04-10T09:02:13.701Z,1642.07
2023-04-10T09:03:10.033Z,1703.89
2023-04-10T09:04:05.514Z,1756.58
2023-04-10T09:05:00.848Z,1802.84
2023-04-10T09:05:57.198Z,1843.92
2023-04-10T09:06:52.505Z,1810.17
2023-04-10T09:07:48.323Z,1816.33
2023-04-10T09:08:43.728Z,1869.75
2023-04-10T09:09:39.117Z,1933.38
2023-04-10T09:10:35.093Z,1960.35
2023-04-10T09:11:30.498Z,2127.49
2023-04-10T09:12:26.491Z,2139.42
2023-04-10T09:13:21.755Z,2210.26
2023-04-10T09:14:17.204Z,2278.16
2023-04-10T09:15:12.630Z,2311.69
2023-04-10T09:16:08.084Z,2340.05
2023-04-10T09:17:03.624Z,2262.71
2023-04-10T09:17:59.024Z,2110.67
2023-04-10T09:18:53.823Z,2130.89
2023-04-10T09:19:53.181Z,2223.15
2023-04-10T09:20:48.578Z,2100.71
2023-04-10T09:21:44.106Z,2136.00
2023-04-10T09:22:39.703Z,2325.78
2023-04-10T09:23:36.328Z,2392.47
2023-04-10T09:24:31.722Z,2255.07
2023-04-10T09:25:27.198Z,2276.22
2023-04-10T09:26:22.589Z,2375.45
2023-04-10T09:27:17.880Z,2465.37
2023-04-10T09:28:12.748Z,2497.66
2023-04-10T09:29:07.901Z,2602.34
2023-04-10T09:30:02.940Z,2617.65
2023-04-10T09:30:57.959Z,2542.86
2023-04-10T09:31:53.026Z,2718.94
2023-04-10T09:32:48.331Z,3020.36
2023-04-10T09:33:43.100Z,3099.25
2023-04-10T09:34:41.337Z,3156.03
2023-04-10T09:35:36.328Z,2688.82
2023-04-10T09:36:31.376Z,2142.86
2023-04-10T09:37:26.521Z,2333.92
2023-04-10T09:38:21.549Z,2085.94
2023-04-10T09:39:16.584Z,2172.50
2023-04-10T09:40:11.721Z,2476.81
2023-04-10T09:41:06.703Z,2195.72
2023-04-10T09:42:01.948Z,1699.55
2023-04-10T09:42:56.784Z,1664.59
2023-04-10T09:43:53.514Z,1583.63
2023-04-10T09:44:48.780Z,1579.88
2023-04-10T09:45:44.601Z,1830.02
2023-04-10T09:46:40.070Z,2109.00
2023-04-10T09:47:35.538Z,2256.97
2023-04-10T09:48:31.213Z,2305.70
2023-04-10T09:49:26.762Z,2052.27
2023-04-10T09:50:22.804Z,2315.70
2023-04-10T09:51:18.042Z,2555.02
2023-04-10T09:52:13.427Z,2810.53
2023-04-10T09:53:09.239Z,2947.02
2023-04-10T09:54:04.474Z,3041.00
2023-04-10T09:54:59.899Z,3070.73
2023-04-10T09:55:56.121Z,3030.65
2023-04-10T09:56:51.704Z,2870.97
2023-04-10T09:57:47.810Z,2738.46
2023-04-10T09:58:43.103Z,2911.67
2023-04-10T09:59:38.614Z,3061.93
2023-04-10T10:00:34.153Z,2960.09
2023-04-10T10:01:29.801Z,2998.32
2023-04-10T10:02:26.209Z,3240.29
2023-04-10T10:03:21.366Z,3388.32
2023-04-10T10:04:16.507Z,3672.63
2023-04-10T10:05:12.565Z,3929.36
2023-04-10T10:06:07.905Z,4057.75
2023-04-10T10:07:03.340Z,4120.37
2023-04-10T10:07:59.562Z,4149.18
2023-04-10T10:08:55.545Z,4191.52
2023-04-10T10:09:51.093Z,4188.23
2023-04-10T10:10:46.552Z,4184.95
2023-04-10T10:11:42.178Z,4398.68
2023-04-10T10:12:37.740Z,4684.21
2023-04-10T10:13:33.216Z,4725.66
2023-04-10T10:14:29.332Z,4819.50
2023-04-10T10:15:24.597Z,4953.62
2023-04-10T10:16:20.341Z,4944.44
2023-04-10T10:17:15.719Z,4981.34
2023-04-10T10:18:11.142Z,4655.62
2023-04-10T10:19:06.512Z,4398.68
2023-04-10T10:20:02.869Z,4424.19
2023-04-10T10:20:58.373Z,4502.53
2023-04-10T10:21:54.763Z,4619.38
2023-04-10T10:22:49.886Z,4828.21
2023-04-10T10:25:10.229Z,5656.78
2023-04-10T10:26:05.515Z,5410.33
2023-04-10T10:27:01.064Z,5372.23
2023-04-10T10:27:56.442Z,5493.83
2023-04-10T10:28:51.850Z,5810.66
2023-04-10T10:29:47.317Z,6144.99
2023-04-10T10:30:42.757Z,6260.26
2023-04-10T10:31:38.168Z,6334.52
2023-04-10T10:32:33.721Z,6441.50
2023-04-10T10:33:29.119Z,6629.42
2023-04-10T10:34:24.399Z,6700.12
2023-04-10T10:35:19.777Z,6596.67
2023-04-10T10:36:15.320Z,6159.17
2023-04-10T10:37:10.790Z,6082.00
2023-04-10T10:38:06.319Z,6194.90
2023-04-10T10:39:01.700Z,6286.05
2023-04-10T10:39:57.310Z,6372.31
2023-04-10T10:40:52.663Z,6422.13
2023-04-10T10:41:48.191Z,6330.77
2023-04-10T10:42:43.722Z,6134.40
2023-04-10T10:43:39.022Z,6127.37
2023-04-10T10:44:34.414Z,6159.17
2023-04-10T10:45:29.868Z,6191.30
2023-04-10T10:46:25.230Z,6323.27
2023-04-10T10:47:20.668Z,6516.17
2023-04-10T10:48:16.187Z,6750.95
2023-04-10T10:49:11.579Z,6679.17
2023-04-10T10:50:06.951Z,6716.98
2023-04-10T10:51:02.438Z,6500.30
2023-04-10T10:51:57.790Z,5946.55
2023-04-10T10:52:53.390Z,5920.18
2023-04-10T10:53:48.667Z,6212.91
2023-04-10T10:55:39.571Z,6621.20
2023-04-10T10:56:34.918Z,6725.44
2023-04-10T10:57:30.280Z,6926.07
2023-04-10T10:58:25.805Z,7240.68
2023-04-10T10:59:21.290Z,7458.10
2023-04-10T11:00:16.832Z,7563.74
2023-04-10T11:01:12.207Z,7494.74
2023-04-10T11:02:07.771Z,7463.31
2023-04-10T11:03:03.377Z,7280.16
2023-04-10T11:03:58.632Z,7391.00
2023-04-10T11:04:53.864Z,6524.13
2023-04-10T11:05:49.405Z,5868.13
2023-04-10T11:06:44.774Z,6209.30
2023-04-10T11:07:39.905Z,6592.59
2023-04-10T11:08:35.469Z,6683.35
2023-04-10T11:09:30.897Z,6989.53
2023-04-10T11:10:26.196Z,7325.10
2023-04-10T11:11:21.903Z,7355.37
2023-04-10T11:12:17.452Z,7655.91
2023-04-10T11:13:12.836Z,7617.69
2023-04-10T11:14:08.397Z,7585.23
2023-04-10T11:15:03.673Z,7421.82
2023-04-10T11:15:59.072Z,7542.37
2023-04-10T11:16:54.714Z,7162.98
2023-04-10T11:17:49.975Z,7521.13
2023-04-10T11:18:45.549Z,7841.41
2023-04-10T11:19:40.676Z,8209.07
2023-04-10T11:20:36.087Z,8647.77
2023-04-10T11:21:31.601Z,8848.38
2023-04-10T11:22:27.000Z,8929.77
2023-04-10T11:23:22.387Z,9081.63
2023-04-10T11:24:17.842Z,9066.21
2023-04-10T11:25:13.224Z,8841.06
2023-04-10T11:26:08.634Z,8654.78
2023-04-10T11:27:04.064Z,8647.77
2023-04-10T11:27:59.579Z,8469.47
2023-04-10T11:28:54.935Z,8885.19
2023-04-10T11:29:50.268Z,8892.59